createdAt,value
2022-09-12T00:01:53.076Z,100660.85
2022-09-12T00:05:20.624Z,100657.73
2022-09-12T00:08:47.641Z,100660.34
2022-09-12T00:12:14.440Z,100661.05
2022-09-12T00:15:44.076Z,100658.74
2022-09-12T00:19:12.542Z,100659.22
2022-09-12T00:22:39.364Z,100661.09
2022-09-12T00:26:07.831Z,100659.61
2022-09-12T00:29:34.962Z,100659.52
2022-09-12T00:33:02.308Z,100657.67
2022-09-12T00:36:31.307Z,100657.41
2022-09-12T00:39:57.983Z,100657.48
2022-09-12T00:43:40.259Z,100655.63
2022-09-12T00:47:14.232Z,100667.92
2022-09-12T00:50:41.076Z,100665.03
2022-09-12T00:54:13.614Z,100659.38
2022-09-12T00:57:45.594Z,100660.50
2022-09-12T01:01:12.348Z,100658.83
2022-09-12T01:04:42.116Z,100662.40
2022-09-12T01:08:08.021Z,100661.09
2022-09-12T01:11:38.279Z,100662.40
2022-09-12T01:15:06.359Z,100666.16
2022-09-12T01:18:46.251Z,100672.19
2022-09-12T01:22:34.541Z,100674.19
2022-09-12T01:26:22.647Z,100671.27
2022-09-12T01:30:07.356Z,100671.86
2022-09-12T01:33:57.449Z,100668.82
2022-09-12T01:37:34.247Z,100670.85
2022-09-12T01:41:13.059Z,100669.61
2022-09-12T01:44:47.474Z,100671.14
2022-09-12T01:48:22.034Z,100675.67
2022-09-12T01:51:58.387Z,100675.66
2022-09-12T01:55:29.627Z,100671.08
2022-09-12T01:59:02.423Z,100670.35
2022-09-12T02:02:34.706Z,100667.50
2022-09-12T02:06:08.006Z,100669.02
2022-09-12T02:09:40.806Z,100665.86
2022-09-12T02:13:13.632Z,100668.11
2022-09-12T02:16:46.346Z,100668.23
2022-09-12T02:20:43.960Z,100670.64
2022-09-12T02:24:11.420Z,100672.88
2022-09-12T02:27:43.130Z,100674.95
2022-09-12T02:31:19.546Z,100675.77
2022-09-12T02:34:51.159Z,100673.08
2022-09-12T02:38:25.660Z,100673.51
2022-09-12T02:41:55.774Z,100676.60
2022-09-12T02:45:23.940Z,100675.85
2022-09-12T02:48:50.631Z,100674.91
2022-09-12T02:52:18.048Z,100675.95
2022-09-12T02:55:46.488Z,100674.67
2022-09-12T02:59:17.469Z,100676.35
2022-09-12T03:03:07.885Z,100677.17
2022-09-12T03:06:41.133Z,100674.33
2022-09-12T03:10:14.649Z,100673.95
2022-09-12T03:13:54.275Z,100676.70
2022-09-12T03:17:31.317Z,100677.60
2022-09-12T03:21:03.923Z,100677.96
2022-09-12T03:24:34.238Z,100679.73
2022-09-12T03:28:08.165Z,100682.88
2022-09-12T03:31:35.674Z,100686.07
2022-09-12T03:35:02.886Z,100684.55
2022-09-12T03:38:30.135Z,100684.14
2022-09-12T03:41:57.373Z,100685.98
2022-09-12T03:45:24.322Z,100683.95
2022-09-12T03:48:51.380Z,100686.98
2022-09-12T03:52:18.610Z,100683.89
2022-09-12T03:55:45.418Z,100683.77
2022-09-12T03:59:12.681Z,100681.05
2022-09-12T04:02:39.720Z,100682.55
2022-09-12T04:06:55.592Z,100684.02
2022-09-12T04:10:22.855Z,100687.66
2022-09-12T04:13:51.546Z,100684.67
2022-09-12T04:17:19.002Z,100685.00
2022-09-12T04:20:48.218Z,100684.80
2022-09-12T04:24:15.549Z,100684.73
2022-09-12T04:27:42.614Z,100686.58
2022-09-12T04:31:13.582Z,100686.65
2022-09-12T04:34:40.626Z,100688.86
2022-09-12T04:38:10.308Z,100688.44
2022-09-12T04:41:39.268Z,100685.43
2022-09-12T04:45:07.712Z,100684.30
2022-09-12T04:48:34.760Z,100683.37
2022-09-12T04:52:02.202Z,100683.11
2022-09-12T04:55:28.896Z,100688.63
2022-09-12T04:58:57.560Z,100690.50
2022-09-12T05:02:24.718Z,100691.50
2022-09-12T05:05:56.248Z,100697.73
2022-09-12T05:09:27.945Z,100699.95
2022-09-12T05:12:55.344Z,100700.63
2022-09-12T05:16:23.596Z,100703.55
2022-09-12T05:19:51.071Z,100698.46
2022-09-12T05:23:17.820Z,100704.91
2022-09-12T05:26:44.687Z,100710.30
2022-09-12T05:30:14.719Z,100713.43
2022-09-12T05:33:40.848Z,100715.33
2022-09-12T05:37:07.979Z,100715.31
2022-09-12T05:40:38.080Z,100717.42
2022-09-12T05:44:06.907Z,100725.13
2022-09-12T05:47:34.799Z,100722.13
2022-09-12T05:51:06.881Z,100725.62
2022-09-12T05:54:34.519Z,100727.91
2022-09-12T05:58:01.991Z,100726.31
2022-09-12T06:01:30.609Z,100731.35
2022-09-12T06:04:57.961Z,100731.13
2022-09-12T06:08:25.394Z,100733.49
2022-09-12T06:11:56.034Z,100736.95
2022-09-12T06:15:22.984Z,100736.77
2022-09-12T06:18:52.147Z,100735.31
2022-09-12T06:22:20.001Z,100739.25
2022-09-12T06:25:53.077Z,100741.60
2022-09-12T06:29:20.619Z,100738.67
2022-09-12T06:32:48.002Z,100742.58
2022-09-12T06:36:18.572Z,100740.92
2022-09-12T06:39:46.968Z,100735.77
2022-09-12T06:43:14.812Z,100741.86
2022-09-12T06:46:41.885Z,100744.28
2022-09-12T06:50:10.545Z,100740.19
2022-09-12T06:53:38.428Z,100738.88
2022-09-12T06:57:05.446Z,100743.90
2022-09-12T07:00:32.404Z,100749.27
2022-09-12T07:04:01.419Z,100746.36
2022-09-12T07:07:28.461Z,100741.48
2022-09-12T07:10:55.514Z,100740.11
2022-09-12T07:14:22.245Z,100743.83
2022-09-12T07:17:49.012Z,100744.91
2022-09-12T07:21:16.318Z,100748.45
2022-09-12T07:24:43.324Z,100746.53
2022-09-12T07:28:10.099Z,100748.31
2022-09-12T07:31:36.878Z,100748.83
2022-09-12T07:35:04.778Z,100753.73
2022-09-12T07:38:31.683Z,100751.75
2022-09-12T07:41:58.821Z,100755.36
2022-09-12T07:45:27.883Z,100755.05
2022-09-12T07:48:56.302Z,100752.59
2022-09-12T07:52:24.630Z,100751.21
2022-09-12T07:55:57.603Z,100752.46
2022-09-12T07:59:48.459Z,100754.82
2022-09-12T08:03:13.152Z,100757.81
2022-09-12T08:06:40.671Z,100761.32
2022-09-12T08:10:09.542Z,100758.58
2022-09-12T08:13:37.766Z,100758.52
2022-09-12T08:17:05.610Z,100758.54
2022-09-12T08:20:33.137Z,100755.52
2022-09-12T08:24:02.503Z,100761.84
2022-09-12T08:27:30.066Z,100767.83
2022-09-12T08:31:00.984Z,100767.59
2022-09-12T08:34:28.029Z,100765.02
2022-09-12T08:37:58.365Z,100767.44
2022-09-12T08:41:30.914Z,100768.29
2022-09-12T08:45:09.813Z,100765.38
2022-09-12T08:48:38.266Z,100761.66
2022-09-12T08:52:08.994Z,100763.89
2022-09-12T08:55:39.654Z,100766.36
2022-09-12T08:59:07.069Z,100762.94
2022-09-12T09:02:58.941Z,100760.48
2022-09-12T09:06:39.097Z,100760.98
2022-09-12T09:10:16.150Z,100759.40
2022-09-12T09:14:14.738Z,100759.45
2022-09-12T09:17:46.587Z,100760.27
2022-09-12T09:21:26.895Z,100759.98
2022-09-12T09:25:00.890Z,100752.54
2022-09-12T09:28:33.103Z,100750.28
2022-09-12T09:32:05.461Z,100745.23
2022-09-12T09:35:45.512Z,100741.15
2022-09-12T09:39:23.108Z,100733.48
2022-09-12T09:43:04.369Z,100732.89
2022-09-12T09:46:31.693Z,100738.80
2022-09-12T09:49:59.051Z,100735.23
2022-09-12T09:53:41.443Z,100733.63
2022-09-12T09:57:41.231Z,100734.02
2022-09-12T10:01:07.360Z,100736.17
2022-09-12T10:04:41.106Z,100735.15
2022-09-12T10:08:10.820Z,100738.47
2022-09-12T10:11:43.678Z,100732.41
2022-09-12T10:15:22.908Z,100734.18
2022-09-12T10:18:51.081Z,100732.05
2022-09-12T10:22:21.862Z,100731.77
2022-09-12T10:25:55.028Z,100728.39
2022-09-12T10:29:25.487Z,100728.45
2022-09-12T10:32:54.162Z,100726.40
2022-09-12T10:36:24.167Z,100726.63
2022-09-12T10:39:57.166Z,100731.38
2022-09-12T10:43:31.023Z,100726.70
2022-09-12T10:46:59.062Z,100724.58
2022-09-12T10:50:29.033Z,100716.28
2022-09-12T10:54:00.142Z,100712.21
2022-09-12T10:58:09.753Z,100702.96
2022-09-12T11:01:44.423Z,100701.50
2022-09-12T11:05:22.565Z,100702.53
2022-09-12T11:09:14.291Z,100703.11
2022-09-12T11:12:48.216Z,100699.95
2022-09-12T11:16:24.783Z,100695.56
2022-09-12T11:20:08.141Z,100697.63
2022-09-12T11:24:00.700Z,100700.02
2022-09-12T11:27:42.658Z,100700.02
2022-09-12T11:31:32.306Z,100697.14
2022-09-12T11:35:11.874Z,100693.73
2022-09-12T11:42:40.578Z,100699.54
2022-09-12T11:46:15.339Z,100699.35
2022-09-12T11:49:50.545Z,100693.70
2022-09-12T11:53:24.216Z,100692.46
2022-09-12T11:56:57.148Z,100689.86
2022-09-12T12:00:30.362Z,100685.94
2022-09-12T12:03:57.999Z,100685.71
2022-09-12T12:07:24.898Z,100682.80
2022-09-12T12:10:57.159Z,100682.14
2022-09-12T12:14:32.020Z,100678.32
2022-09-12T12:18:07.445Z,100676.63
2022-09-12T12:21:43.679Z,100674.23
2022-09-12T12:25:29.847Z,100676.89
2022-09-12T12:29:01.290Z,100675.52
2022-09-12T12:32:29.231Z,100666.00
2022-09-12T12:36:09.978Z,100669.11
2022-09-12T12:40:01.329Z,100670.69
2022-09-12T12:43:34.762Z,100667.40
2022-09-12T12:47:19.725Z,100671.48
2022-09-12T12:50:48.509Z,100671.65
2022-09-12T12:54:34.883Z,100663.98
2022-09-12T12:58:03.739Z,100659.16
2022-09-12T13:01:41.199Z,100658.84
2022-09-12T13:05:18.759Z,100655.91
2022-09-12T13:09:03.233Z,100648.89
2022-09-12T13:12:34.034Z,100649.55
2022-09-12T13:16:01.093Z,100649.89
2022-09-12T13:19:32.370Z,100648.92
2022-09-12T13:23:00.517Z,100649.48
2022-09-12T13:26:28.065Z,100646.23
2022-09-12T13:30:09.757Z,100652.73
2022-09-12T13:33:46.256Z,100649.89
2022-09-12T13:37:31.212Z,100649.85
2022-09-12T13:41:20.003Z,100648.00
2022-09-12T13:44:52.807Z,100650.90
2022-09-12T13:48:26.379Z,100652.08
2022-09-12T13:52:02.853Z,100652.45
2022-09-12T13:55:34.022Z,100648.70
2022-09-12T13:59:12.565Z,100644.52
2022-09-12T14:02:41.500Z,100643.45
2022-09-12T14:06:19.137Z,100643.95
2022-09-12T14:09:48.132Z,100640.94
2022-09-12T14:13:19.417Z,100642.04
2022-09-12T14:16:46.056Z,100643.27
2022-09-12T14:20:18.575Z,100644.06
2022-09-12T14:23:49.611Z,100643.98
2022-09-12T14:27:18.814Z,100640.44
2022-09-12T14:31:02.128Z,100635.19
2022-09-12T14:34:32.463Z,100630.91
2022-09-12T14:38:19.954Z,100628.30
2022-09-12T14:41:47.751Z,100627.28
2022-09-12T14:45:19.573Z,100627.04
2022-09-12T14:48:51.795Z,100624.50
2022-09-12T14:52:32.376Z,100620.87
2022-09-12T14:56:10.055Z,100622.55
2022-09-12T14:59:41.906Z,100619.35
2022-09-12T15:03:26.780Z,100618.68
2022-09-12T15:06:53.933Z,100624.04
2022-09-12T15:10:25.509Z,100624.96
2022-09-12T15:13:55.385Z,100625.31
2022-09-12T15:17:22.625Z,100625.20
2022-09-12T15:20:56.036Z,100624.57
2022-09-12T15:24:23.105Z,100630.69
2022-09-12T15:27:56.118Z,100631.80
2022-09-12T15:31:27.053Z,100628.73
2022-09-12T15:34:57.351Z,100628.25
2022-09-12T15:38:26.480Z,100631.74
2022-09-12T15:42:14.720Z,100630.21
2022-09-12T15:45:44.846Z,100635.05
2022-09-12T15:49:11.912Z,100628.64
2022-09-12T15:52:47.925Z,100636.00
2022-09-12T15:56:15.059Z,100642.09
2022-09-12T15:59:41.903Z,100641.79
2022-09-12T16:03:19.259Z,100640.93
2022-09-12T16:06:49.135Z,100635.48
2022-09-12T16:10:18.107Z,100644.86
2022-09-12T16:14:06.101Z,100639.45
2022-09-12T16:17:32.866Z,100633.64
2022-09-12T16:21:00.178Z,100636.27
2022-09-12T16:24:27.388Z,100635.85
2022-09-12T16:27:56.581Z,100634.42
2022-09-12T16:31:23.499Z,100633.84
2022-09-12T16:35:12.033Z,100634.67
2022-09-12T16:38:43.308Z,100633.01
2022-09-12T16:42:10.438Z,100632.95
2022-09-12T16:46:05.603Z,100631.67
2022-09-12T16:49:52.970Z,100625.99
2022-09-12T16:53:19.837Z,100624.34
2022-09-12T16:56:49.565Z,100624.98
2022-09-12T17:00:17.443Z,100615.72
2022-09-12T17:03:45.065Z,100611.36
2022-09-12T17:07:14.929Z,100610.20
2022-09-12T17:11:00.145Z,100613.08
2022-09-12T17:14:36.177Z,100617.55
2022-09-12T17:18:03.023Z,100619.89
2022-09-12T17:21:30.214Z,100618.88
2022-09-12T17:25:00.025Z,100624.55
2022-09-12T17:28:27.662Z,100625.48
2022-09-12T17:31:56.661Z,100624.05
2022-09-12T17:35:23.889Z,100628.46
2022-09-12T17:38:52.721Z,100627.42
2022-09-12T17:42:22.223Z,100624.77
2022-09-12T17:45:57.052Z,100625.32
2022-09-12T17:49:24.841Z,100622.50
2022-09-12T17:52:53.941Z,100620.55
2022-09-12T17:56:22.709Z,100620.91
2022-09-12T17:59:52.810Z,100621.62
2022-09-12T18:03:24.841Z,100621.45
2022-09-12T18:06:52.395Z,100620.22
2022-09-12T18:10:19.860Z,100622.67
2022-09-12T18:13:47.657Z,100624.44
2022-09-12T18:17:15.141Z,100624.77
2022-09-12T18:20:51.212Z,100627.06
2022-09-12T18:24:18.929Z,100628.28
2022-09-12T18:27:46.441Z,100626.88
2022-09-12T18:31:17.203Z,100630.89
2022-09-12T18:34:44.381Z,100628.61
2022-09-12T18:38:14.871Z,100630.52
2022-09-12T18:41:42.496Z,100629.48
2022-09-12T18:45:11.926Z,100628.92
2022-09-12T18:48:39.502Z,100623.77
2022-09-12T18:52:07.224Z,100626.02
2022-09-12T18:55:34.909Z,100619.67
2022-09-12T18:59:05.956Z,100619.64
2022-09-12T19:02:36.955Z,100621.54
2022-09-12T19:06:07.588Z,100617.13
2022-09-12T19:09:38.295Z,100612.52
2022-09-12T19:13:05.555Z,100617.41
2022-09-12T19:16:33.108Z,100624.23
2022-09-12T19:20:09.062Z,100621.23
2022-09-12T19:23:37.647Z,100618.05
2022-09-12T19:27:06.621Z,100616.42
2022-09-12T19:30:34.081Z,100609.73
2022-09-12T19:34:05.421Z,100608.47
2022-09-12T19:37:34.175Z,100609.51
2022-09-12T19:41:02.893Z,100610.00
2022-09-12T19:44:34.573Z,100610.48
2022-09-12T19:48:01.786Z,100606.25
2022-09-12T19:51:31.664Z,100609.18
2022-09-12T19:54:58.634Z,100605.29
2022-09-12T19:58:26.023Z,100606.46
2022-09-12T20:01:55.713Z,100602.52
2022-09-12T20:05:22.997Z,100601.93
2022-09-12T20:08:50.309Z,100596.79
2022-09-12T20:12:17.446Z,100594.98
2022-09-12T20:15:44.344Z,100595.11
2022-09-12T20:19:11.325Z,100593.13
2022-09-12T20:22:40.132Z,100589.56
2022-09-12T20:26:08.824Z,100588.98
2022-09-12T20:29:35.961Z,100588.40
2022-09-12T20:33:03.342Z,100587.29
2022-09-12T20:36:30.661Z,100585.66
2022-09-12T20:39:58.833Z,100586.85
2022-09-12T20:43:25.713Z,100584.88
2022-09-12T20:46:56.172Z,100588.33
2022-09-12T20:50:23.046Z,100585.48
2022-09-12T20:53:55.882Z,100579.13
2022-09-12T20:57:25.502Z,100577.51
2022-09-12T21:00:52.555Z,100576.75
2022-09-12T21:04:19.501Z,100572.90
2022-09-12T21:07:46.411Z,100574.44
2022-09-12T21:11:17.622Z,100574.02
2022-09-12T21:14:44.359Z,100572.04
2022-09-12T21:18:12.555Z,100570.77
2022-09-12T21:21:39.408Z,100574.70
2022-09-12T21:25:07.064Z,100577.78
2022-09-12T21:28:34.922Z,100577.71
2022-09-12T21:32:05.985Z,100575.54
2022-09-12T21:35:34.974Z,100571.77
2022-09-12T21:39:22.480Z,100569.94
2022-09-12T21:42:50.780Z,100571.98
2022-09-12T21:46:20.494Z,100568.09
2022-09-12T21:49:50.536Z,100567.16
2022-09-12T21:53:17.573Z,100571.31
2022-09-12T21:57:00.750Z,100572.83
2022-09-12T22:00:28.891Z,100569.42
2022-09-12T22:04:13.157Z,100571.47
2022-09-12T22:07:40.724Z,100568.79
2022-09-12T22:11:09.841Z,100566.63
2022-09-12T22:14:39.975Z,100561.30
2022-09-12T22:18:15.630Z,100560.52
2022-09-12T22:22:02.308Z,100558.34
2022-09-12T22:25:32.314Z,100553.73
2022-09-12T22:29:00.224Z,100551.45
2022-09-12T22:32:27.144Z,100551.92
2022-09-12T22:35:54.023Z,100547.88
2022-09-12T22:39:21.538Z,100543.46
2022-09-12T22:42:48.327Z,100539.42
2022-09-12T22:46:15.156Z,100527.18
2022-09-12T22:49:42.864Z,100528.59
2022-09-12T22:53:09.956Z,100527.67
2022-09-12T22:56:46.988Z,100517.88
2022-09-12T23:00:18.117Z,100514.73
2022-09-12T23:03:45.044Z,100507.02
2022-09-12T23:07:15.137Z,100513.51
2022-09-12T23:10:42.415Z,100508.77
2022-09-12T23:14:09.349Z,100506.88
2022-09-12T23:17:47.956Z,100506.04
2022-09-12T23:21:20.129Z,100502.91
2022-09-12T23:24:47.726Z,100496.98
2022-09-12T23:28:17.726Z,100498.02
2022-09-12T23:31:45.024Z,100496.48
2022-09-12T23:35:13.162Z,100494.02
2022-09-12T23:38:40.161Z,100487.34
2022-09-12T23:42:09.949Z,100487.13
2022-09-12T23:45:37.265Z,100479.40
2022-09-12T23:49:07.436Z,100479.38
2022-09-12T23:52:37.288Z,100476.02
2022-09-12T23:56:09.591Z,100476.85
2022-09-12T23:59:45.474Z,100477.33
